createdAt,value
2022-12-26T00:01:22.490Z,4.10
2022-12-26T00:03:49.061Z,4.22
2022-12-26T00:06:17.031Z,4.15
2022-12-26T00:08:44.040Z,4.05
2022-12-26T00:11:11.106Z,4.00
2022-12-26T00:13:41.309Z,3.97
2022-12-26T00:16:12.224Z,3.97
2022-12-26T00:18:38.867Z,4.05
2022-12-26T00:21:05.999Z,3.75
2022-12-26T00:23:33.255Z,4.20
2022-12-26T00:26:10.387Z,3.75
2022-12-26T00:28:37.262Z,3.80
2022-12-26T00:31:08.049Z,3.50
2022-12-26T00:33:35.619Z,3.85
2022-12-26T00:36:03.076Z,3.90
2022-12-26T00:38:29.601Z,4.25
2022-12-26T00:40:56.106Z,4.10
2022-12-26T00:43:22.562Z,4.20
2022-12-26T00:45:49.081Z,4.20
2022-12-26T00:48:15.479Z,3.88
2022-12-26T00:50:42.108Z,4.03
2022-12-26T00:53:08.646Z,4.57
2022-12-26T00:55:35.071Z,4.25
2022-12-26T00:58:01.566Z,4.35
2022-12-26T01:00:28.098Z,4.15
2022-12-26T01:02:54.715Z,3.92
2022-12-26T01:05:21.312Z,3.55
2022-12-26T01:08:22.303Z,4.25
2022-12-26T01:10:34.291Z,3.47
2022-12-26T01:13:00.713Z,3.72
2022-12-26T01:15:27.108Z,4.20
2022-12-26T01:17:53.543Z,3.30
2022-12-26T01:20:19.995Z,3.85
2022-12-26T01:22:46.409Z,3.80
2022-12-26T01:25:12.901Z,3.47
2022-12-26T01:27:39.289Z,3.30
2022-12-26T01:30:06.175Z,3.78
2022-12-26T01:32:32.600Z,3.70
2022-12-26T01:34:59.041Z,3.33
2022-12-26T01:37:25.540Z,3.80
2022-12-26T01:39:52.242Z,3.80
2022-12-26T01:42:20.660Z,3.50
2022-12-26T01:45:07.757Z,3.58
2022-12-26T01:47:40.211Z,3.80
2022-12-26T01:50:10.170Z,3.78
2022-12-26T01:52:39.801Z,3.80
2022-12-26T01:55:09.295Z,3.85
2022-12-26T01:57:38.296Z,3.90
2022-12-26T02:00:05.337Z,3.25
2022-12-26T02:02:51.961Z,3.53
2022-12-26T02:05:37.515Z,3.60
2022-12-26T02:08:06.529Z,3.63
2022-12-26T02:10:40.884Z,3.40
2022-12-26T02:13:07.406Z,3.72
2022-12-26T02:15:33.783Z,3.45
2022-12-26T02:18:00.285Z,3.65
2022-12-26T02:20:28.641Z,3.33
2022-12-26T02:22:58.110Z,3.58
2022-12-26T02:25:40.039Z,3.17
2022-12-26T02:28:34.175Z,3.28
2022-12-26T02:31:14.188Z,3.70
2022-12-26T02:33:40.625Z,3.88
2022-12-26T02:36:17.511Z,3.70
2022-12-26T02:38:43.870Z,3.70
2022-12-26T02:41:17.678Z,3.50
2022-12-26T02:43:52.176Z,3.78
2022-12-26T02:46:54.027Z,3.95
2022-12-26T02:49:52.599Z,3.80
2022-12-26T02:52:39.533Z,2.85
2022-12-26T02:55:35.373Z,3.55
2022-12-26T02:58:24.737Z,3.67
2022-12-26T03:01:14.519Z,3.40
2022-12-26T03:04:00.736Z,3.47
2022-12-26T03:06:51.044Z,3.80
2022-12-26T03:09:50.051Z,3.47
2022-12-26T03:12:38.002Z,3.75
2022-12-26T03:15:06.761Z,3.30
2022-12-26T03:17:40.157Z,3.55
2022-12-26T03:20:18.267Z,3.10
2022-12-26T03:23:01.349Z,3.50
2022-12-26T03:25:49.230Z,3.30
2022-12-26T03:28:16.297Z,3.38
2022-12-26T03:30:52.259Z,3.35
2022-12-26T03:33:41.683Z,3.00
2022-12-26T03:36:11.629Z,3.35
2022-12-26T03:38:51.454Z,3.35
2022-12-26T03:41:44.132Z,2.70
2022-12-26T03:44:54.027Z,2.97
2022-12-26T03:47:44.556Z,3.10
2022-12-26T03:50:34.290Z,3.33
2022-12-26T03:53:30.954Z,3.25
2022-12-26T03:56:18.831Z,3.65
2022-12-26T03:59:07.466Z,3.38
2022-12-26T04:01:54.812Z,3.28
2022-12-26T04:04:40.987Z,3.15
2022-12-26T04:07:29.838Z,3.13
2022-12-26T04:10:23.889Z,3.30
2022-12-26T04:13:09.197Z,3.08
2022-12-26T04:16:01.019Z,3.60
2022-12-26T04:18:51.229Z,2.87
2022-12-26T04:21:39.819Z,3.47
2022-12-26T04:24:28.650Z,3.58
2022-12-26T04:27:15.421Z,3.20
2022-12-26T04:30:00.745Z,3.38
2022-12-26T04:32:54.355Z,2.90
2022-12-26T04:35:40.777Z,2.90
2022-12-26T04:38:26.269Z,2.70
2022-12-26T04:41:14.901Z,2.97
2022-12-26T04:43:59.899Z,2.47
2022-12-26T04:46:27.333Z,3.08
2022-12-26T04:49:12.985Z,2.92
2022-12-26T04:51:39.407Z,2.60
2022-12-26T04:54:06.331Z,2.67
2022-12-26T04:56:32.926Z,2.53
2022-12-26T04:58:59.784Z,2.70
2022-12-26T05:01:44.899Z,2.60
2022-12-26T05:04:33.916Z,2.90
2022-12-26T05:07:19.627Z,2.72
2022-12-26T05:09:46.695Z,2.38
2022-12-26T05:12:13.135Z,2.65
2022-12-26T05:14:39.539Z,2.40
2022-12-26T05:17:25.476Z,2.53
2022-12-26T05:20:10.934Z,2.63
2022-12-26T05:22:57.281Z,2.50
2022-12-26T05:25:44.012Z,2.60
2022-12-26T05:28:29.842Z,2.72
2022-12-26T05:30:56.471Z,2.60
2022-12-26T05:33:41.770Z,2.50
2022-12-26T05:36:08.710Z,2.30
2022-12-26T05:38:35.775Z,2.60
2022-12-26T05:41:02.417Z,2.33
2022-12-26T05:43:29.137Z,2.33
2022-12-26T05:45:55.939Z,2.33
2022-12-26T05:48:22.454Z,2.17
2022-12-26T05:50:48.863Z,2.13
2022-12-26T05:53:15.329Z,1.90
2022-12-26T05:55:41.879Z,2.25
2022-12-26T05:58:08.307Z,2.20
2022-12-26T06:00:34.796Z,2.03
2022-12-26T06:03:02.250Z,2.10
2022-12-26T06:05:29.121Z,2.22
2022-12-26T06:07:55.484Z,2.30
2022-12-26T06:10:22.002Z,1.85
2022-12-26T06:12:48.415Z,1.90
2022-12-26T06:15:14.810Z,2.22
2022-12-26T06:17:41.229Z,2.20
2022-12-26T06:20:07.955Z,2.05
2022-12-26T06:22:34.370Z,2.40
2022-12-26T06:25:00.784Z,2.25
2022-12-26T06:27:27.202Z,2.53
2022-12-26T06:29:53.650Z,2.25
2022-12-26T06:32:20.031Z,2.90
2022-12-26T06:34:47.460Z,2.45
2022-12-26T06:37:13.909Z,2.50
2022-12-26T06:39:40.310Z,2.58
2022-12-26T06:42:06.748Z,2.30
2022-12-26T06:44:33.131Z,2.67
2022-12-26T06:46:59.756Z,2.60
2022-12-26T06:49:32.397Z,2.42
2022-12-26T06:51:59.314Z,2.45
2022-12-26T06:54:25.721Z,2.60
2022-12-26T06:56:52.225Z,2.45
2022-12-26T06:59:18.670Z,2.75
2022-12-26T07:01:45.391Z,2.72
2022-12-26T07:04:12.889Z,2.90
2022-12-26T07:06:39.405Z,2.92
2022-12-26T07:09:11.021Z,2.50
2022-12-26T07:11:38.445Z,2.40
2022-12-26T07:14:05.054Z,2.75
2022-12-26T07:16:31.663Z,2.50
2022-12-26T07:18:58.545Z,2.45
2022-12-26T07:21:25.839Z,2.60
2022-12-26T07:23:52.659Z,2.70
2022-12-26T07:26:19.218Z,2.33
2022-12-26T07:28:45.613Z,2.50
2022-12-26T07:31:20.575Z,2.50
2022-12-26T07:33:48.345Z,2.53
2022-12-26T07:36:14.855Z,2.50
2022-12-26T07:38:41.435Z,2.20
2022-12-26T07:41:26.667Z,2.67
2022-12-26T07:43:53.075Z,2.55
2022-12-26T07:46:19.582Z,2.30
2022-12-26T07:48:46.020Z,2.70
2022-12-26T07:51:12.474Z,2.85
2022-12-26T07:53:38.968Z,2.85
2022-12-26T07:56:05.587Z,2.38
2022-12-26T07:58:31.996Z,2.20
2022-12-26T08:01:02.653Z,2.13
2022-12-26T08:03:29.247Z,2.15
2022-12-26T08:05:55.782Z,2.50
2022-12-26T08:08:22.717Z,2.40
2022-12-26T08:10:49.187Z,2.22
2022-12-26T08:13:15.644Z,2.40
2022-12-26T08:15:42.142Z,2.60
2022-12-26T08:18:08.783Z,2.28
2022-12-26T08:20:36.552Z,2.47
2022-12-26T08:23:02.969Z,2.13
2022-12-26T08:25:29.380Z,2.20
2022-12-26T08:27:55.782Z,2.30
2022-12-26T08:30:22.219Z,2.45
2022-12-26T08:32:50.608Z,2.88
2022-12-26T08:35:17.059Z,2.83
2022-12-26T08:37:43.594Z,2.67
2022-12-26T08:40:10.248Z,2.90
2022-12-26T08:42:44.735Z,2.88
2022-12-26T08:45:16.854Z,2.70
2022-12-26T08:47:43.300Z,3.15
2022-12-26T08:50:09.919Z,3.35
2022-12-26T08:52:36.375Z,3.30
2022-12-26T08:55:03.129Z,3.22
2022-12-26T08:57:29.739Z,3.33
2022-12-26T08:59:56.314Z,3.67
2022-12-26T09:02:22.976Z,3.83
2022-12-26T09:04:49.571Z,3.55
2022-12-26T09:07:15.917Z,3.53
2022-12-26T09:09:42.327Z,3.55
2022-12-26T09:12:08.788Z,3.70
2022-12-26T09:14:35.344Z,3.97
2022-12-26T09:17:01.828Z,3.80
2022-12-26T09:19:32.505Z,4.18
2022-12-26T09:22:18.222Z,4.18
2022-12-26T09:24:44.644Z,4.35
2022-12-26T09:27:11.103Z,4.40
2022-12-26T09:29:40.523Z,4.72
2022-12-26T09:32:07.750Z,5.07
2022-12-26T09:34:34.267Z,5.20
2022-12-26T09:37:00.696Z,5.20
2022-12-26T09:39:27.066Z,5.65
2022-12-26T09:42:19.846Z,5.72
2022-12-26T09:47:20.502Z,5.10
2022-12-26T09:49:51.974Z,5.43
2022-12-26T09:52:21.042Z,6.10
2022-12-26T09:54:58.772Z,5.95
2022-12-26T09:57:34.247Z,5.85
2022-12-26T10:00:01.996Z,5.97
2022-12-26T10:02:28.683Z,6.20
2022-12-26T10:04:55.422Z,6.70
2022-12-26T10:07:24.626Z,5.93
2022-12-26T10:09:57.775Z,6.07
2022-12-26T10:12:36.479Z,6.22
2022-12-26T10:15:11.719Z,6.25
2022-12-26T10:18:09.056Z,5.88
2022-12-26T10:20:38.553Z,6.72
2022-12-26T10:23:05.024Z,7.05
2022-12-26T10:25:44.662Z,6.95
2022-12-26T10:28:16.781Z,6.55
2022-12-26T10:30:43.465Z,6.93
2022-12-26T10:33:14.214Z,6.97
2022-12-26T10:35:42.699Z,7.32
2022-12-26T10:38:28.148Z,5.95
2022-12-26T10:40:56.411Z,6.22
2022-12-26T10:43:26.443Z,6.78
2022-12-26T10:45:58.652Z,6.70
2022-12-26T10:48:26.422Z,6.60
2022-12-26T10:50:52.943Z,7.03
2022-12-26T10:53:19.619Z,6.50
2022-12-26T10:55:46.049Z,7.18
2022-12-26T10:58:18.548Z,7.35
2022-12-26T11:00:45.148Z,7.65
2022-12-26T11:03:13.313Z,7.53
2022-12-26T11:08:37.857Z,7.15
2022-12-26T11:11:13.921Z,6.83
2022-12-26T11:13:42.215Z,6.78
2022-12-26T11:16:09.209Z,6.72
2022-12-26T11:18:42.105Z,6.38
2022-12-26T11:21:18.217Z,7.22
2022-12-26T11:23:45.373Z,6.68
2022-12-26T11:26:32.120Z,6.90
2022-12-26T11:29:15.821Z,7.00
2022-12-26T11:31:59.168Z,6.00
2022-12-26T11:34:34.544Z,6.93
2022-12-26T11:37:01.553Z,6.90
2022-12-26T11:39:30.098Z,7.18
2022-12-26T11:41:57.394Z,6.38
2022-12-26T11:44:26.500Z,6.97
2022-12-26T11:46:58.701Z,6.28
2022-12-26T11:49:33.571Z,6.18
2022-12-26T11:52:01.020Z,6.10
2022-12-26T11:54:29.217Z,6.00
2022-12-26T11:57:03.923Z,6.57
2022-12-26T11:59:30.362Z,5.57
2022-12-26T12:02:22.885Z,6.45
2022-12-26T12:04:50.583Z,6.15
2022-12-26T12:07:26.060Z,5.68
2022-12-26T12:10:11.340Z,6.10
2022-12-26T12:12:47.385Z,6.13
2022-12-26T12:15:18.507Z,6.35
2022-12-26T12:18:01.339Z,6.57
2022-12-26T12:20:32.581Z,5.78
2022-12-26T12:23:17.769Z,6.07
2022-12-26T12:26:03.193Z,6.70
2022-12-26T12:28:29.914Z,6.57
2022-12-26T12:30:56.262Z,7.00
2022-12-26T12:33:49.111Z,7.15
2022-12-26T12:36:22.713Z,7.53
2022-12-26T12:38:56.394Z,7.15
2022-12-26T12:41:35.044Z,6.90
2022-12-26T12:44:16.641Z,7.75
2022-12-26T12:46:43.056Z,7.97
2022-12-26T12:49:38.809Z,6.85
2022-12-26T12:52:17.843Z,7.68
2022-12-26T12:54:50.164Z,6.13
2022-12-26T12:59:48.933Z,6.57
2022-12-26T13:02:23.762Z,6.40
2022-12-26T13:04:53.355Z,7.03
2022-12-26T13:07:25.675Z,7.45
2022-12-26T13:12:22.971Z,6.80
2022-12-26T13:14:52.487Z,7.20
2022-12-26T13:17:22.097Z,7.03
2022-12-26T13:19:58.519Z,7.40
2022-12-26T13:22:51.537Z,7.25
2022-12-26T13:25:19.126Z,6.40
2022-12-26T13:27:45.828Z,6.75
2022-12-26T13:30:13.736Z,6.10
2022-12-26T13:32:46.278Z,6.25
2022-12-26T13:35:31.702Z,6.50
2022-12-26T13:37:58.694Z,6.13
2022-12-26T13:40:27.633Z,6.10
2022-12-26T13:43:19.837Z,6.63
2022-12-26T13:45:51.708Z,6.03
2022-12-26T13:48:18.194Z,6.65
2022-12-26T13:50:56.133Z,6.40
2022-12-26T13:53:25.933Z,6.72
2022-12-26T13:55:56.932Z,6.30
2022-12-26T13:58:29.394Z,6.20
2022-12-26T14:01:00.748Z,6.38
2022-12-26T14:03:30.215Z,7.20
2022-12-26T14:06:11.811Z,6.85
2022-12-26T14:08:38.229Z,7.10
2022-12-26T14:11:23.120Z,7.55
2022-12-26T14:14:08.142Z,7.47
2022-12-26T14:16:34.667Z,8.18
2022-12-26T14:19:19.769Z,9.15
2022-12-26T14:21:52.244Z,8.70
2022-12-26T14:24:23.490Z,9.27
2022-12-26T14:26:53.173Z,10.25
2022-12-26T14:29:23.500Z,10.50
2022-12-26T14:32:08.669Z,10.40
2022-12-26T14:34:53.721Z,11.77
2022-12-26T14:37:20.150Z,12.45
2022-12-26T14:39:46.522Z,14.07
2022-12-26T14:42:34.305Z,13.88
2022-12-26T14:45:01.734Z,15.57
2022-12-26T14:47:34.321Z,15.32
2022-12-26T14:50:20.647Z,15.85
2022-12-26T14:52:47.944Z,16.33
2022-12-26T14:55:33.150Z,16.23
2022-12-26T14:58:19.237Z,17.92
2022-12-26T15:00:45.981Z,16.27
2022-12-26T15:03:32.744Z,17.33
2022-12-26T15:06:31.665Z,17.83
2022-12-26T15:09:16.126Z,17.27
2022-12-26T15:11:45.635Z,19.75
2022-12-26T15:14:27.293Z,17.80
2022-12-26T15:16:59.506Z,18.83
2022-12-26T15:22:06.098Z,17.25
2022-12-26T15:25:17.139Z,16.27
2022-12-26T15:27:45.503Z,15.95
2022-12-26T15:30:17.287Z,15.93
2022-12-26T15:32:46.667Z,16.08
2022-12-26T15:35:33.791Z,14.85
2022-12-26T15:38:20.415Z,13.20
2022-12-26T15:41:05.722Z,14.10
2022-12-26T15:43:35.145Z,13.13
2022-12-26T15:46:20.097Z,13.93
2022-12-26T15:48:58.875Z,11.93
2022-12-26T15:51:35.005Z,12.20
2022-12-26T15:54:20.282Z,12.32
2022-12-26T15:57:02.201Z,11.63
2022-12-26T15:59:34.454Z,11.27
2022-12-26T16:04:30.932Z,10.35
2022-12-26T16:07:19.491Z,10.95
2022-12-26T16:09:51.852Z,10.32
2022-12-26T16:14:44.632Z,9.77
2022-12-26T16:17:11.046Z,9.63
2022-12-26T16:19:37.783Z,9.48
2022-12-26T16:22:23.469Z,10.48
2022-12-26T16:24:53.281Z,9.18
2022-12-26T16:27:24.134Z,8.55
2022-12-26T16:29:58.340Z,8.52
2022-12-26T16:32:30.844Z,9.00
2022-12-26T16:35:00.722Z,8.93
2022-12-26T16:37:27.583Z,8.90
2022-12-26T16:40:07.575Z,8.25
2022-12-26T16:42:34.512Z,8.00
2022-12-26T16:45:01.347Z,7.65
2022-12-26T16:47:28.767Z,8.32
2022-12-26T16:49:55.346Z,7.75
2022-12-26T16:52:33.137Z,7.40
2022-12-26T16:55:19.533Z,7.57
2022-12-26T16:57:45.958Z,7.13
2022-12-26T17:00:20.187Z,6.57
2022-12-26T17:02:47.771Z,6.47
2022-12-26T17:05:34.478Z,7.13
2022-12-26T17:08:02.040Z,6.60
2022-12-26T17:10:30.697Z,6.97
2022-12-26T17:12:58.518Z,6.13
2022-12-26T17:15:36.495Z,6.10
2022-12-26T17:18:41.502Z,5.85
2022-12-26T17:21:18.279Z,5.35
2022-12-26T17:23:44.710Z,5.75
2022-12-26T17:26:17.022Z,5.22
2022-12-26T17:31:15.729Z,5.60
2022-12-26T17:37:19.361Z,5.72
2022-12-26T17:39:13.003Z,5.50
2022-12-26T17:41:48.865Z,5.35
2022-12-26T17:44:34.523Z,5.20
2022-12-26T17:47:15.804Z,5.13
2022-12-26T17:49:42.263Z,5.93
2022-12-26T17:52:10.169Z,5.68
2022-12-26T17:54:36.593Z,5.93
2022-12-26T17:57:03.089Z,5.90
2022-12-26T17:59:29.487Z,5.85
2022-12-26T18:02:04.033Z,5.28
2022-12-26T18:04:31.856Z,5.40
2022-12-26T18:06:58.731Z,5.55
2022-12-26T18:09:29.304Z,5.68
2022-12-26T18:11:58.600Z,5.88
2022-12-26T18:14:25.138Z,5.30
2022-12-26T18:16:51.973Z,5.07
2022-12-26T18:19:19.048Z,5.60
2022-12-26T18:21:45.595Z,5.22
2022-12-26T18:24:13.215Z,5.05
2022-12-26T18:26:39.791Z,5.30
2022-12-26T18:29:06.348Z,5.47
2022-12-26T18:31:32.957Z,4.72
2022-12-26T18:33:59.474Z,5.35
2022-12-26T18:36:33.977Z,4.75
2022-12-26T18:39:02.519Z,4.80
2022-12-26T18:41:28.921Z,5.30
2022-12-26T18:43:55.448Z,5.00
2022-12-26T18:46:23.266Z,4.93
2022-12-26T18:48:50.124Z,4.60
2022-12-26T18:51:16.924Z,4.90
2022-12-26T18:53:43.401Z,4.80
2022-12-26T18:56:19.614Z,4.55
2022-12-26T18:58:49.103Z,5.00
2022-12-26T19:01:18.224Z,4.60
2022-12-26T19:03:45.128Z,4.28
2022-12-26T19:06:30.347Z,4.68
2022-12-26T19:08:57.201Z,4.35
2022-12-26T19:11:23.601Z,4.45
2022-12-26T19:13:50.199Z,4.18
2022-12-26T19:16:20.593Z,4.57
2022-12-26T19:18:50.163Z,4.35
2022-12-26T19:21:23.343Z,4.15
2022-12-26T19:23:53.111Z,4.75
2022-12-26T19:26:27.071Z,4.35
2022-12-26T19:28:58.716Z,4.60
2022-12-26T19:31:29.180Z,5.05
2022-12-26T19:34:02.242Z,4.75
2022-12-26T19:36:31.809Z,5.15
2022-12-26T19:38:59.835Z,5.05
2022-12-26T19:41:29.161Z,5.03
2022-12-26T19:43:56.388Z,5.10
2022-12-26T19:46:22.992Z,4.93
2022-12-26T19:48:51.983Z,4.72
2022-12-26T19:51:19.234Z,5.75
2022-12-26T19:53:46.225Z,5.40
2022-12-26T19:56:16.977Z,5.30
2022-12-26T19:58:43.728Z,5.28
2022-12-26T20:01:14.996Z,5.32
2022-12-26T20:03:41.806Z,5.50
2022-12-26T20:06:09.574Z,5.15
2022-12-26T20:09:04.784Z,5.22
2022-12-26T20:11:32.722Z,5.30
2022-12-26T20:13:59.859Z,5.07
2022-12-26T20:19:21.775Z,5.65
2022-12-26T20:21:50.908Z,5.32
2022-12-26T20:24:18.777Z,5.35
2022-12-26T20:26:51.312Z,5.50
2022-12-26T20:29:32.809Z,5.13
2022-12-26T20:31:59.318Z,5.10
2022-12-26T20:34:26.037Z,5.35
2022-12-26T20:36:52.569Z,4.53
2022-12-26T20:39:19.470Z,5.05
2022-12-26T20:41:46.244Z,4.75
2022-12-26T20:44:13.735Z,4.88
2022-12-26T20:46:40.260Z,4.78
2022-12-26T20:49:06.824Z,4.78
2022-12-26T20:51:39.038Z,4.70
2022-12-26T20:54:09.630Z,5.07
2022-12-26T20:56:37.274Z,5.18
2022-12-26T20:59:04.080Z,4.68
2022-12-26T21:01:30.834Z,4.70
2022-12-26T21:03:57.926Z,5.13
2022-12-26T21:06:28.305Z,4.45
2022-12-26T21:08:56.340Z,4.18
2022-12-26T21:11:33.530Z,4.75
2022-12-26T21:14:01.832Z,4.53
2022-12-26T21:16:30.270Z,4.05
2022-12-26T21:18:57.599Z,4.20
2022-12-26T21:21:25.798Z,4.50
2022-12-26T21:24:02.923Z,4.32
2022-12-26T21:26:29.774Z,4.07
2022-12-26T21:29:01.079Z,4.78
2022-12-26T21:31:28.406Z,3.83
2022-12-26T21:33:55.983Z,4.47
2022-12-26T21:36:22.543Z,4.07
2022-12-26T21:38:48.904Z,4.20
2022-12-26T21:41:15.291Z,4.10
2022-12-26T21:43:41.819Z,4.38
2022-12-26T21:46:09.679Z,4.32
2022-12-26T21:48:36.326Z,4.00
2022-12-26T21:51:04.175Z,4.28
2022-12-26T21:53:30.576Z,3.97
2022-12-26T21:56:02.827Z,3.90
2022-12-26T21:58:29.444Z,4.07
2022-12-26T22:00:55.955Z,4.10
2022-12-26T22:03:40.999Z,3.95
2022-12-26T22:06:14.335Z,4.55
2022-12-26T22:08:43.099Z,3.95
2022-12-26T22:11:34.842Z,3.90
2022-12-26T22:14:01.276Z,3.90
2022-12-26T22:16:27.731Z,3.95
2022-12-26T22:18:55.362Z,3.75
2022-12-26T22:21:22.396Z,4.00
2022-12-26T22:23:52.010Z,3.95
2022-12-26T22:26:19.955Z,3.83
2022-12-26T22:28:46.770Z,3.35
2022-12-26T22:31:23.521Z,3.40
2022-12-26T22:34:03.511Z,3.72
2022-12-26T22:36:30.538Z,3.90
2022-12-26T22:38:57.888Z,3.53
2022-12-26T22:41:24.316Z,3.40
2022-12-26T22:43:50.742Z,3.60
2022-12-26T22:46:17.724Z,3.22
2022-12-26T22:48:44.427Z,3.70
2022-12-26T22:51:15.681Z,3.58
2022-12-26T22:53:42.463Z,3.00
2022-12-26T22:56:09.716Z,3.28
2022-12-26T22:58:36.126Z,3.10
2022-12-26T23:01:02.648Z,3.03
2022-12-26T23:03:29.217Z,3.08
2022-12-26T23:05:55.860Z,3.13
2022-12-26T23:08:23.722Z,2.88
2022-12-26T23:10:52.028Z,2.95
2022-12-26T23:13:18.618Z,3.00
2022-12-26T23:15:52.160Z,2.78
2022-12-26T23:18:49.228Z,2.75
2022-12-26T23:21:38.802Z,2.65
2022-12-26T23:24:13.037Z,2.63
2022-12-26T23:26:40.405Z,2.70
2022-12-26T23:29:25.427Z,2.50
2022-12-26T23:31:51.932Z,2.45
2022-12-26T23:34:18.590Z,2.53
2022-12-26T23:36:44.977Z,2.38
2022-12-26T23:39:11.408Z,2.40
2022-12-26T23:41:37.828Z,2.20
2022-12-26T23:44:05.042Z,2.50
2022-12-26T23:46:31.479Z,2.25
2022-12-26T23:48:58.111Z,2.10
2022-12-26T23:51:24.676Z,1.88
2022-12-26T23:53:51.139Z,2.25
2022-12-26T23:56:17.589Z,1.80
2022-12-26T23:58:44.575Z,1.70
